Itasca, Illinois
Current Conditions -  °F | °C
As of 6:51 PM on Friday 24 Oct 2014 (Local Time) from KORD Reporting Station
Broken Clouds Broken Clouds  
Wind Chill: 61°   Ceiling: 10000
Heat Index: 61°   Visibility: 10mi
Dew Point: 46°   Wind: 6mph
Humidity: 58%   Direction: 190°S
Pressure: 29.94"   Gusts: NA
Location:  41.97°N, 88.02°W
Report Text: KORD 242351Z 19005KT 10SM BKN100 BKN250 16/08 A2994 RMK AO2 SLP140 T01610078 10194 20156 55006
Loading
Personal Weather Stations






























Interactive Weather Map
Tropical Storm Tracking
New forecast layout! Learn more

10-Day Weather Forecast

Advertisements
Track Severe Weather on mobile